Arrecife, Spain
Current Conditions -  °F | °C
As of 4:00 PM on Saturday 25 Oct 2014 (Local Time) from GCRR Reporting Station
Clear Clear  
Wind Chill: 77°   Ceiling: Unl
Heat Index: 79°   Visibility: 6mi
Dew Point: 70°   Wind: 8mph
Humidity: 78%   Direction: 80°E
Pressure: 30"   Gusts: NA
Location:  28.96°N, 13.55°W
Report Text: GCRR 251500Z 08007KT CAVOK 25/21 Q1016
Loading
Personal Weather Stations






























Interactive Weather Map
Tropical Storm Tracking
New forecast layout! Learn more

10-Day Weather Forecast

Advertisements
Track Severe Weather on mobile